sensor_id;sensor_type;location;lat;lon;timestamp;pressure;altitude;pressure_sealevel;temperature;humidity
40998;BME280;26740;45.944;12.480;2022-12-18T00:00:43;102370.19;;;3.93;100.00
40998;BME280;26740;45.944;12.480;2022-12-18T00:03:09;102371.25;;;3.92;100.00
40998;BME280;26740;45.944;12.480;2022-12-18T00:05:35;102375.84;;;3.75;100.00
40998;BME280;26740;45.944;12.480;2022-12-18T00:08:02;102377.75;;;3.74;100.00
40998;BME280;26740;45.944;12.480;2022-12-18T00:10:28;102380.16;;;3.94;100.00
40998;BME280;26740;45.944;12.480;2022-12-18T00:12:54;102382.22;;;4.08;100.00
40998;BME280;26740;45.944;12.480;2022-12-18T00:15:19;102380.00;;;4.20;100.00
40998;BME280;26740;45.944;12.480;2022-12-18T00:17:45;102386.00;;;4.24;100.00
40998;BME280;26740;45.944;12.480;2022-12-18T00:20:11;102376.38;;;4.28;100.00
40998;BME280;26740;45.944;12.480;2022-12-18T00:22:37;102389.09;;;4.21;100.00
40998;BME280;26740;45.944;12.480;2022-12-18T00:25:02;102387.38;;;4.20;100.00
40998;BME280;26740;45.944;12.480;2022-12-18T00:27:28;102392.53;;;4.14;100.00
40998;BME280;26740;45.944;12.480;2022-12-18T00:29:54;102391.34;;;4.17;100.00
40998;BME280;26740;45.944;12.480;2022-12-18T00:32:19;102396.13;;;4.07;100.00
40998;BME280;26740;45.944;12.480;2022-12-18T00:34:45;102404.91;;;4.10;100.00
40998;BME280;26740;45.944;12.480;2022-12-18T00:37:11;102403.00;;;4.03;100.00
40998;BME280;26740;45.944;12.480;2022-12-18T00:39:36;102398.69;;;4.00;100.00
40998;BME280;26740;45.944;12.480;2022-12-18T00:42:02;102404.19;;;4.00;100.00
40998;BME280;26740;45.944;12.480;2022-12-18T00:44:46;102410.56;;;3.92;100.00
40998;BME280;26740;45.944;12.480;2022-12-18T00:47:12;102409.34;;;3.78;100.00
40998;BME280;26740;45.944;12.480;2022-12-18T00:49:37;102411.06;;;3.79;100.00
40998;BME280;26740;45.944;12.480;2022-12-18T00:52:03;102411.06;;;3.79;100.00
40998;BME280;26740;45.944;12.480;2022-12-18T00:54:28;102412.59;;;3.82;100.00
40998;BME280;26740;45.944;12.480;2022-12-18T00:56:54;102416.34;;;3.65;100.00
40998;BME280;26740;45.944;12.480;2022-12-18T00:59:20;102419.25;;;3.63;100.00
40998;BME280;26740;45.944;12.480;2022-12-18T01:01:46;102415.66;;;3.63;100.00
40998;BME280;26740;45.944;12.480;2022-12-18T01:04:12;102420.25;;;3.54;100.00
40998;BME280;26740;45.944;12.480;2022-12-18T01:06:38;102426.78;;;3.53;100.00
40998;BME280;26740;45.944;12.480;2022-12-18T01:09:05;102431.75;;;3.49;100.00
40998;BME280;26740;45.944;12.480;2022-12-18T01:11:30;102434.69;;;3.48;100.00
40998;BME280;26740;45.944;12.480;2022-12-18T01:13:58;102436.38;;;3.49;100.00
40998;BME280;26740;45.944;12.480;2022-12-18T01:16:24;102438.13;;;3.50;100.00
40998;BME280;26740;45.944;12.480;2022-12-18T01:18:53;102441.66;;;3.34;100.00
40998;BME280;26740;45.944;12.480;2022-12-18T01:21:20;102447.16;;;3.34;100.00
40998;BME280;26740;45.944;12.480;2022-12-18T01:23:46;102447.78;;;3.19;100.00
40998;BME280;26740;45.944;12.480;2022-12-18T01:26:15;102448.16;;;3.33;100.00
40998;BME280;26740;45.944;12.480;2022-12-18T01:28:42;102451.22;;;3.21;100.00
40998;BME280;26740;45.944;12.480;2022-12-18T01:31:16;102452.38;;;3.11;100.00
40998;BME280;26740;45.944;12.480;2022-12-18T01:33:43;102452.16;;;3.04;100.00
40998;BME280;26740;45.944;12.480;2022-12-18T01:36:21;102447.66;;;3.03;100.00
40998;BME280;26740;45.944;12.480;2022-12-18T01:38:49;102450.78;;;3.08;100.00
40998;BME280;26740;45.944;12.480;2022-12-18T01:41:18;102460.16;;;2.97;100.00
40998;BME280;26740;45.944;12.480;2022-12-18T01:43:50;102453.59;;;2.90;100.00
40998;BME280;26740;45.944;12.480;2022-12-18T01:46:18;102450.19;;;2.96;100.00
40998;BME280;26740;45.944;12.480;2022-12-18T01:48:46;102452.31;;;2.76;100.00
40998;BME280;26740;45.944;12.480;2022-12-18T01:51:13;102445.53;;;2.62;100.00
40998;BME280;26740;45.944;12.480;2022-12-18T01:53:41;102458.47;;;2.52;100.00
40998;BME280;26740;45.944;12.480;2022-12-18T01:56:07;102475.59;;;2.46;100.00
40998;BME280;26740;45.944;12.480;2022-12-18T02:01:07;102479.34;;;2.45;100.00
40998;BME280;26740;45.944;12.480;2022-12-18T02:03:33;102476.59;;;2.45;100.00
40998;BME280;26740;45.944;12.480;2022-12-18T02:09:25;102483.69;;;2.30;100.00
40998;BME280;26740;45.944;12.480;2022-12-18T02:12:19;102494.16;;;2.16;100.00
40998;BME280;26740;45.944;12.480;2022-12-18T02:15:09;102493.06;;;2.09;100.00
40998;BME280;26740;45.944;12.480;2022-12-18T02:18:08;102492.50;;;2.05;100.00
40998;BME280;26740;45.944;12.480;2022-12-18T02:20:45;102493.59;;;1.95;100.00
40998;BME280;26740;45.944;12.480;2022-12-18T02:27:00;102490.22;;;1.83;100.00
40998;BME280;26740;45.944;12.480;2022-12-18T02:29:13;102493.88;;;1.74;100.00
40998;BME280;26740;45.944;12.480;2022-12-18T02:31:47;102494.88;;;1.73;100.00
40998;BME280;26740;45.944;12.480;2022-12-18T02:34:15;102497.31;;;1.76;100.00
40998;BME280;26740;45.944;12.480;2022-12-18T02:36:43;102498.88;;;1.78;100.00
40998;BME280;26740;45.944;12.480;2022-12-18T02:39:12;102506.66;;;1.83;100.00
40998;BME280;26740;45.944;12.480;2022-12-18T02:41:39;102502.84;;;1.66;100.00
40998;BME280;26740;45.944;12.480;2022-12-18T02:44:11;102505.50;;;1.58;100.00
40998;BME280;26740;45.944;12.480;2022-12-18T02:46:38;102515.03;;;1.54;100.00
40998;BME280;26740;45.944;12.480;2022-12-18T02:57:37;102526.84;;;1.54;100.00
40998;BME280;26740;45.944;12.480;2022-12-18T03:00:10;102530.03;;;1.49;100.00
40998;BME280;26740;45.944;12.480;2022-12-18T03:05:33;102539.09;;;1.22;100.00
40998;BME280;26740;45.944;12.480;2022-12-18T03:10:31;102539.25;;;1.11;100.00
40998;BME280;26740;45.944;12.480;2022-12-18T03:13:13;102546.88;;;1.07;100.00
40998;BME280;26740;45.944;12.480;2022-12-18T03:15:45;102551.22;;;1.00;100.00
40998;BME280;26740;45.944;12.480;2022-12-18T03:18:19;102544.16;;;1.07;100.00
40998;BME280;26740;45.944;12.480;2022-12-18T03:20:47;102554.38;;;1.05;100.00
40998;BME280;26740;45.944;12.480;2022-12-18T03:23:22;102547.19;;;1.04;100.00
40998;BME280;26740;45.944;12.480;2022-12-18T03:25:51;102543.84;;;1.10;100.00
40998;BME280;26740;45.944;12.480;2022-12-18T03:28:21;102550.03;;;1.12;100.00
40998;BME280;26740;45.944;12.480;2022-12-18T03:30:51;102551.50;;;1.17;100.00
40998;BME280;26740;45.944;12.480;2022-12-18T03:33:34;102548.44;;;1.20;100.00
40998;BME280;26740;45.944;12.480;2022-12-18T03:36:02;102555.34;;;1.24;100.00
40998;BME280;26740;45.944;12.480;2022-12-18T03:38:28;102554.75;;;1.30;100.00
40998;BME280;26740;45.944;12.480;2022-12-18T03:41:06;102554.59;;;1.31;100.00
40998;BME280;26740;45.944;12.480;2022-12-18T03:49:12;102549.03;;;1.13;100.00
40998;BME280;26740;45.944;12.480;2022-12-18T03:51:49;102544.00;;;1.09;100.00
40998;BME280;26740;45.944;12.480;2022-12-18T03:54:18;102549.75;;;1.06;100.00
40998;BME280;26740;45.944;12.480;2022-12-18T03:56:49;102551.06;;;1.11;100.00
40998;BME280;26740;45.944;12.480;2022-12-18T03:59:17;102564.88;;;1.10;100.00
40998;BME280;26740;45.944;12.480;2022-12-18T04:01:49;102565.75;;;1.10;100.00
40998;BME280;26740;45.944;12.480;2022-12-18T04:04:18;102566.06;;;0.98;100.00
40998;BME280;26740;45.944;12.480;2022-12-18T04:06:45;102565.22;;;0.87;100.00
40998;BME280;26740;45.944;12.480;2022-12-18T04:09:13;102573.13;;;0.81;100.00
40998;BME280;26740;45.944;12.480;2022-12-18T04:11:41;102582.66;;;0.77;100.00
40998;BME280;26740;45.944;12.480;2022-12-18T04:14:09;102578.03;;;0.77;100.00
40998;BME280;26740;45.944;12.480;2022-12-18T04:16:35;102586.41;;;0.66;100.00
40998;BME280;26740;45.944;12.480;2022-12-18T04:19:01;102583.81;;;0.64;100.00
40998;BME280;26740;45.944;12.480;2022-12-18T04:21:26;102593.72;;;0.65;100.00
40998;BME280;26740;45.944;12.480;2022-12-18T04:23:52;102601.91;;;0.65;100.00
40998;BME280;26740;45.944;12.480;2022-12-18T04:26:18;102597.59;;;0.63;100.00
40998;BME280;26740;45.944;12.480;2022-12-18T04:28:43;102602.94;;;0.64;100.00
40998;BME280;26740;45.944;12.480;2022-12-18T04:31:09;102604.50;;;0.67;100.00
40998;BME280;26740;45.944;12.480;2022-12-18T04:33:35;102607.53;;;0.54;100.00
40998;BME280;26740;45.944;12.480;2022-12-18T04:36:00;102626.50;;;0.65;100.00
40998;BME280;26740;45.944;12.480;2022-12-18T04:38:26;102617.47;;;0.74;100.00
40998;BME280;26740;45.944;12.480;2022-12-18T04:40:52;102629.84;;;0.79;100.00
40998;BME280;26740;45.944;12.480;2022-12-18T04:43:17;102628.28;;;0.76;100.00
40998;BME280;26740;45.944;12.480;2022-12-18T04:45:43;102618.91;;;0.88;100.00
40998;BME280;26740;45.944;12.480;2022-12-18T04:48:08;102628.84;;;0.89;100.00
40998;BME280;26740;45.944;12.480;2022-12-18T04:50:34;102624.81;;;0.84;100.00
40998;BME280;26740;45.944;12.480;2022-12-18T04:53:00;102634.31;;;0.70;100.00
40998;BME280;26740;45.944;12.480;2022-12-18T04:55:26;102638.63;;;0.72;100.00
40998;BME280;26740;45.944;12.480;2022-12-18T04:57:52;102632.56;;;0.79;100.00
40998;BME280;26740;45.944;12.480;2022-12-18T05:00:18;102636.59;;;0.84;100.00
40998;BME280;26740;45.944;12.480;2022-12-18T05:02:44;102644.66;;;0.56;100.00
40998;BME280;26740;45.944;12.480;2022-12-18T05:05:10;102645.69;;;0.75;100.00
40998;BME280;26740;45.944;12.480;2022-12-18T05:07:35;102649.41;;;0.64;100.00
40998;BME280;26740;45.944;12.480;2022-12-18T05:10:01;102653.69;;;0.47;100.00
40998;BME280;26740;45.944;12.480;2022-12-18T05:12:27;102659.75;;;0.41;100.00
40998;BME280;26740;45.944;12.480;2022-12-18T05:14:52;102652.22;;;0.33;100.00
40998;BME280;26740;45.944;12.480;2022-12-18T05:17:18;102665.75;;;0.35;100.00
40998;BME280;26740;45.944;12.480;2022-12-18T05:19:44;102661.41;;;0.23;100.00
40998;BME280;26740;45.944;12.480;2022-12-18T05:22:09;102675.72;;;0.05;100.00
40998;BME280;26740;45.944;12.480;2022-12-18T05:24:35;102676.28;;;-0.01;100.00
40998;BME280;26740;45.944;12.480;2022-12-18T05:27:01;102679.47;;;0.04;100.00
40998;BME280;26740;45.944;12.480;2022-12-18T05:29:27;102675.94;;;0.23;100.00
40998;BME280;26740;45.944;12.480;2022-12-18T05:31:53;102671.03;;;0.17;100.00
40998;BME280;26740;45.944;12.480;2022-12-18T05:34:18;102681.38;;;0.13;100.00
40998;BME280;26740;45.944;12.480;2022-12-18T05:36:44;102697.91;;;0.12;100.00
40998;BME280;26740;45.944;12.480;2022-12-18T05:39:09;102695.28;;;0.01;100.00
40998;BME280;26740;45.944;12.480;2022-12-18T05:41:35;102689.03;;;-0.11;100.00
40998;BME280;26740;45.944;12.480;2022-12-18T05:44:01;102693.06;;;-0.06;100.00
40998;BME280;26740;45.944;12.480;2022-12-18T05:46:26;102691.38;;;0.03;100.00
40998;BME280;26740;45.944;12.480;2022-12-18T05:48:52;102689.53;;;0.04;100.00
40998;BME280;26740;45.944;12.480;2022-12-18T05:51:20;102692.78;;;-0.12;100.00
40998;BME280;26740;45.944;12.480;2022-12-18T05:53:46;102700.41;;;-0.06;100.00
40998;BME280;26740;45.944;12.480;2022-12-18T05:56:22;102700.16;;;-0.03;100.00
40998;BME280;26740;45.944;12.480;2022-12-18T05:58:51;102706.09;;;-0.19;100.00
40998;BME280;26740;45.944;12.480;2022-12-18T06:01:20;102704.47;;;-0.01;100.00
40998;BME280;26740;45.944;12.480;2022-12-18T06:03:46;102707.50;;;0.06;100.00
40998;BME280;26740;45.944;12.480;2022-12-18T06:06:17;102703.50;;;0.10;100.00
40998;BME280;26740;45.944;12.480;2022-12-18T06:08:43;102700.63;;;0.12;100.00
40998;BME280;26740;45.944;12.480;2022-12-18T06:11:08;102707.41;;;0.17;100.00
40998;BME280;26740;45.944;12.480;2022-12-18T06:13:34;102711.31;;;0.25;100.00
40998;BME280;26740;45.944;12.480;2022-12-18T06:16:03;102715.91;;;0.24;100.00
40998;BME280;26740;45.944;12.480;2022-12-18T06:18:29;102719.81;;;0.22;100.00
40998;BME280;26740;45.944;12.480;2022-12-18T06:20:56;102732.03;;;-0.04;100.00
40998;BME280;26740;45.944;12.480;2022-12-18T06:23:22;102729.00;;;-0.10;100.00
40998;BME280;26740;45.944;12.480;2022-12-18T06:25:48;102723.69;;;-0.12;100.00
40998;BME280;26740;45.944;12.480;2022-12-18T06:28:14;102729.13;;;-0.12;100.00
40998;BME280;26740;45.944;12.480;2022-12-18T06:30:39;102737.38;;;-0.23;100.00
40998;BME280;26740;45.944;12.480;2022-12-18T06:33:05;102735.09;;;-0.28;100.00
40998;BME280;26740;45.944;12.480;2022-12-18T06:35:32;102736.66;;;-0.25;100.00
40998;BME280;26740;45.944;12.480;2022-12-18T06:37:57;102732.53;;;-0.20;100.00
40998;BME280;26740;45.944;12.480;2022-12-18T06:40:23;102728.81;;;-0.18;100.00
40998;BME280;26740;45.944;12.480;2022-12-18T06:42:48;102741.31;;;-0.16;100.00
40998;BME280;26740;45.944;12.480;2022-12-18T06:45:14;102734.53;;;-0.22;100.00
40998;BME280;26740;45.944;12.480;2022-12-18T06:47:40;102740.41;;;-0.26;100.00
40998;BME280;26740;45.944;12.480;2022-12-18T06:50:06;102744.69;;;-0.33;100.00
40998;BME280;26740;45.944;12.480;2022-12-18T06:52:32;102746.38;;;-0.32;100.00
40998;BME280;26740;45.944;12.480;2022-12-18T06:54:59;102755.31;;;-0.30;100.00
40998;BME280;26740;45.944;12.480;2022-12-18T06:57:24;102756.13;;;-0.40;100.00
40998;BME280;26740;45.944;12.480;2022-12-18T06:59:50;102765.03;;;-0.38;100.00
40998;BME280;26740;45.944;12.480;2022-12-18T07:02:16;102764.28;;;0.03;100.00
40998;BME280;26740;45.944;12.480;2022-12-18T07:04:41;102759.81;;;0.32;100.00
40998;BME280;26740;45.944;12.480;2022-12-18T07:07:07;102753.38;;;0.43;100.00
40998;BME280;26740;45.944;12.480;2022-12-18T07:09:33;102763.66;;;0.70;100.00
40998;BME280;26740;45.944;12.480;2022-12-18T07:11:58;102764.72;;;1.18;100.00
40998;BME280;26740;45.944;12.480;2022-12-18T07:14:24;102769.75;;;1.81;100.00
40998;BME280;26740;45.944;12.480;2022-12-18T07:16:50;102774.41;;;2.18;100.00
40998;BME280;26740;45.944;12.480;2022-12-18T07:19:15;102778.91;;;2.75;100.00
40998;BME280;26740;45.944;12.480;2022-12-18T07:21:41;102775.03;;;3.31;100.00
40998;BME280;26740;45.944;12.480;2022-12-18T07:24:07;102787.03;;;3.66;100.00
40998;BME280;26740;45.944;12.480;2022-12-18T07:26:32;102787.84;;;3.85;100.00
40998;BME280;26740;45.944;12.480;2022-12-18T07:28:58;102790.53;;;4.21;100.00
40998;BME280;26740;45.944;12.480;2022-12-18T07:31:24;102794.34;;;4.28;100.00
40998;BME280;26740;45.944;12.480;2022-12-18T07:33:51;102802.53;;;4.80;100.00
40998;BME280;26740;45.944;12.480;2022-12-18T07:36:17;102792.81;;;5.27;100.00
40998;BME280;26740;45.944;12.480;2022-12-18T07:38:46;102798.84;;;5.30;100.00
40998;BME280;26740;45.944;12.480;2022-12-18T07:41:12;102799.75;;;5.64;100.00
40998;BME280;26740;45.944;12.480;2022-12-18T07:43:39;102809.75;;;5.98;100.00
40998;BME280;26740;45.944;12.480;2022-12-18T07:46:05;102811.03;;;6.59;100.00
40998;BME280;26740;45.944;12.480;2022-12-18T07:48:31;102810.81;;;6.69;100.00
40998;BME280;26740;45.944;12.480;2022-12-18T07:51:05;102809.88;;;7.16;100.00
40998;BME280;26740;45.944;12.480;2022-12-18T07:53:32;102820.75;;;7.49;100.00
40998;BME280;26740;45.944;12.480;2022-12-18T07:56:04;102822.00;;;7.15;100.00
40998;BME280;26740;45.944;12.480;2022-12-18T07:58:30;102820.47;;;6.73;100.00
40998;BME280;26740;45.944;12.480;2022-12-18T08:01:06;102838.78;;;7.37;100.00
40998;BME280;26740;45.944;12.480;2022-12-18T08:03:32;102849.81;;;7.45;100.00
40998;BME280;26740;45.944;12.480;2022-12-18T08:05:59;102848.88;;;7.53;100.00
40998;BME280;26740;45.944;12.480;2022-12-18T08:08:25;102846.97;;;7.53;100.00
40998;BME280;26740;45.944;12.480;2022-12-18T08:10:51;102848.56;;;7.48;100.00
40998;BME280;26740;45.944;12.480;2022-12-18T08:13:16;102848.53;;;7.79;100.00
40998;BME280;26740;45.944;12.480;2022-12-18T08:15:42;102857.47;;;8.04;100.00
40998;BME280;26740;45.944;12.480;2022-12-18T08:18:08;102865.94;;;8.94;100.00
40998;BME280;26740;45.944;12.480;2022-12-18T08:20:33;102862.06;;;9.82;100.00
40998;BME280;26740;45.944;12.480;2022-12-18T08:22:59;102872.16;;;10.61;100.00
40998;BME280;26740;45.944;12.480;2022-12-18T08:25:24;102862.91;;;10.82;100.00
40998;BME280;26740;45.944;12.480;2022-12-18T08:27:50;102870.31;;;11.72;96.42
40998;BME280;26740;45.944;12.480;2022-12-18T08:30:16;102875.75;;;12.20;91.83
40998;BME280;26740;45.944;12.480;2022-12-18T08:32:41;102881.97;;;12.42;89.25
40998;BME280;26740;45.944;12.480;2022-12-18T08:35:07;102893.06;;;12.76;87.79
40998;BME280;26740;45.944;12.480;2022-12-18T08:37:33;102894.63;;;13.30;83.20
40998;BME280;26740;45.944;12.480;2022-12-18T08:39:59;102904.09;;;13.36;84.01
40998;BME280;26740;45.944;12.480;2022-12-18T08:42:25;102904.13;;;13.74;80.67
40998;BME280;26740;45.944;12.480;2022-12-18T08:45:09;102900.84;;;14.16;80.23
40998;BME280;26740;45.944;12.480;2022-12-18T08:47:35;102902.00;;;14.33;78.67
40998;BME280;26740;45.944;12.480;2022-12-18T08:50:00;102890.63;;;14.53;78.73
40998;BME280;26740;45.944;12.480;2022-12-18T08:52:26;102904.00;;;14.51;76.79
40998;BME280;26740;45.944;12.480;2022-12-18T08:54:53;102904.31;;;14.68;75.01
40998;BME280;26740;45.944;12.480;2022-12-18T08:57:19;102913.63;;;14.81;72.67
40998;BME280;26740;45.944;12.480;2022-12-18T08:59:44;102913.13;;;14.90;72.39
40998;BME280;26740;45.944;12.480;2022-12-18T09:02:11;102918.75;;;14.65;71.51
40998;BME280;26740;45.944;12.480;2022-12-18T09:04:36;102924.56;;;15.07;68.78
40998;BME280;26740;45.944;12.480;2022-12-18T09:07:02;102926.19;;;15.52;66.77
40998;BME280;26740;45.944;12.480;2022-12-18T09:09:28;102933.28;;;15.36;65.14
40998;BME280;26740;45.944;12.480;2022-12-18T09:11:54;102943.88;;;14.90;64.70
40998;BME280;26740;45.944;12.480;2022-12-18T09:14:19;102955.41;;;15.19;65.35
40998;BME280;26740;45.944;12.480;2022-12-18T09:16:45;102949.59;;;15.21;60.21
40998;BME280;26740;45.944;12.480;2022-12-18T09:19:10;102951.06;;;15.60;62.82
40998;BME280;26740;45.944;12.480;2022-12-18T09:21:37;102950.16;;;15.97;61.85
40998;BME280;26740;45.944;12.480;2022-12-18T09:24:05;102955.50;;;16.17;58.45
40998;BME280;26740;45.944;12.480;2022-12-18T09:26:31;102947.91;;;15.57;60.78
40998;BME280;26740;45.944;12.480;2022-12-18T09:28:56;102951.59;;;16.18;58.28
40998;BME280;26740;45.944;12.480;2022-12-18T09:31:23;102949.22;;;16.03;59.03
40998;BME280;26740;45.944;12.480;2022-12-18T09:33:49;102958.00;;;16.06;56.57
40998;BME280;26740;45.944;12.480;2022-12-18T09:36:16;102956.91;;;16.38;52.78
40998;BME280;26740;45.944;12.480;2022-12-18T09:38:43;102959.56;;;16.33;51.43
40998;BME280;26740;45.944;12.480;2022-12-18T09:44:20;102956.88;;;14.59;52.89
40998;BME280;26740;45.944;12.480;2022-12-18T09:46:53;102956.22;;;14.26;54.20
40998;BME280;26740;45.944;12.480;2022-12-18T09:49:23;102948.56;;;13.11;55.91
40998;BME280;26740;45.944;12.480;2022-12-18T09:51:54;102943.63;;;13.33;57.24
40998;BME280;26740;45.944;12.480;2022-12-18T09:54:46;102946.88;;;13.03;58.41
40998;BME280;26740;45.944;12.480;2022-12-18T09:57:16;102962.88;;;14.56;56.18
40998;BME280;26740;45.944;12.480;2022-12-18T09:59:48;102953.03;;;15.41;50.46
40998;BME280;26740;45.944;12.480;2022-12-18T10:02:21;102957.81;;;15.71;51.60
40998;BME280;26740;45.944;12.480;2022-12-18T10:05:06;102961.19;;;14.49;52.85
40998;BME280;26740;45.944;12.480;2022-12-18T10:10:57;102957.34;;;13.27;56.71
40998;BME280;26740;45.944;12.480;2022-12-18T10:18:39;102935.97;;;12.61;58.47
40998;BME280;26740;45.944;12.480;2022-12-18T10:21:21;102937.25;;;11.57;61.43
40998;BME280;26740;45.944;12.480;2022-12-18T10:26:40;102924.53;;;11.34;66.01
40998;BME280;26740;45.944;12.480;2022-12-18T10:29:14;102919.63;;;10.95;68.08
40998;BME280;26740;45.944;12.480;2022-12-18T10:31:40;102911.66;;;11.27;69.27
40998;BME280;26740;45.944;12.480;2022-12-18T10:34:10;102915.31;;;11.27;67.71
40998;BME280;26740;45.944;12.480;2022-12-18T10:36:36;102917.31;;;11.40;66.89
40998;BME280;26740;45.944;12.480;2022-12-18T10:39:21;102910.25;;;12.06;64.88
40998;BME280;26740;45.944;12.480;2022-12-18T10:41:49;102907.78;;;11.76;70.20
40998;BME280;26740;45.944;12.480;2022-12-18T10:44:22;102907.84;;;11.96;63.89
40998;BME280;26740;45.944;12.480;2022-12-18T10:46:50;102901.47;;;12.09;64.71
40998;BME280;26740;45.944;12.480;2022-12-18T10:49:19;102901.28;;;12.37;66.29
40998;BME280;26740;45.944;12.480;2022-12-18T10:51:46;102899.88;;;11.80;65.51
40998;BME280;26740;45.944;12.480;2022-12-18T10:54:21;102906.03;;;11.62;67.15
40998;BME280;26740;45.944;12.480;2022-12-18T10:56:48;102910.19;;;11.31;70.26
40998;BME280;26740;45.944;12.480;2022-12-18T10:59:16;102905.25;;;11.88;65.33
40998;BME280;26740;45.944;12.480;2022-12-18T11:01:47;102904.63;;;11.24;67.78
40998;BME280;26740;45.944;12.480;2022-12-18T11:04:21;102907.28;;;11.46;70.07
40998;BME280;26740;45.944;12.480;2022-12-18T11:06:55;102914.22;;;11.83;72.92
40998;BME280;26740;45.944;12.480;2022-12-18T11:09:24;102912.81;;;12.01;66.67
40998;BME280;26740;45.944;12.480;2022-12-18T11:11:52;102909.63;;;12.24;65.42
40998;BME280;26740;45.944;12.480;2022-12-18T11:14:31;102909.09;;;13.07;63.50
40998;BME280;26740;45.944;12.480;2022-12-18T11:16:59;102909.28;;;13.71;60.02
40998;BME280;26740;45.944;12.480;2022-12-18T11:19:34;102914.94;;;12.92;60.30
40998;BME280;26740;45.944;12.480;2022-12-18T11:22:03;102912.81;;;12.21;62.32
40998;BME280;26740;45.944;12.480;2022-12-18T11:24:43;102895.97;;;13.21;62.94
40998;BME280;26740;45.944;12.480;2022-12-18T11:27:18;102902.75;;;12.73;59.33
40998;BME280;26740;45.944;12.480;2022-12-18T11:29:44;102894.19;;;12.14;65.94
40998;BME280;26740;45.944;12.480;2022-12-18T11:32:38;102896.22;;;11.86;63.76
40998;BME280;26740;45.944;12.480;2022-12-18T11:37:41;102881.97;;;12.62;62.26
40998;BME280;26740;45.944;12.480;2022-12-18T11:40:14;102884.34;;;12.05;62.31
40998;BME280;26740;45.944;12.480;2022-12-18T11:45:30;102875.41;;;14.24;57.21
40998;BME280;26740;45.944;12.480;2022-12-18T11:48:04;102886.22;;;13.50;55.64
40998;BME280;26740;45.944;12.480;2022-12-18T11:50:43;102882.66;;;13.75;57.19
40998;BME280;26740;45.944;12.480;2022-12-18T11:53:11;102889.91;;;14.65;52.92
40998;BME280;26740;45.944;12.480;2022-12-18T11:55:42;102877.06;;;14.57;52.29
40998;BME280;26740;45.944;12.480;2022-12-18T12:01:11;102882.25;;;14.03;56.54
40998;BME280;26740;45.944;12.480;2022-12-18T12:06:43;102886.09;;;13.77;55.82
40998;BME280;26740;45.944;12.480;2022-12-18T12:15:16;102872.00;;;11.11;63.82
40998;BME280;26740;45.944;12.480;2022-12-18T12:18:05;102875.22;;;11.08;65.19
40998;BME280;26740;45.944;12.480;2022-12-18T12:21:02;102870.41;;;11.30;63.86
40998;BME280;26740;45.944;12.480;2022-12-18T12:24:04;102869.44;;;11.10;64.19
40998;BME280;26740;45.944;12.480;2022-12-18T12:29:31;102872.53;;;10.87;64.98
40998;BME280;26740;45.944;12.480;2022-12-18T12:32:11;102869.63;;;11.02;65.58
40998;BME280;26740;45.944;12.480;2022-12-18T12:35:08;102876.31;;;11.14;65.31
40998;BME280;26740;45.944;12.480;2022-12-18T12:40:30;102877.31;;;11.48;67.09
40998;BME280;26740;45.944;12.480;2022-12-18T12:43:03;102882.09;;;11.74;66.63
40998;BME280;26740;45.944;12.480;2022-12-18T12:48:43;102878.88;;;11.70;64.75
40998;BME280;26740;45.944;12.480;2022-12-18T12:53:41;102877.69;;;12.20;65.39
40998;BME280;26740;45.944;12.480;2022-12-18T12:56:09;102866.75;;;12.31;66.98
40998;BME280;26740;45.944;12.480;2022-12-18T12:58:54;102873.84;;;12.34;62.93
40998;BME280;26740;45.944;12.480;2022-12-18T13:01:35;102872.03;;;11.73;64.50
40998;BME280;26740;45.944;12.480;2022-12-18T13:07:24;102874.22;;;10.53;68.72
40998;BME280;26740;45.944;12.480;2022-12-18T13:12:36;102870.28;;;10.40;68.68
40998;BME280;26740;45.944;12.480;2022-12-18T13:15:26;102880.44;;;10.55;67.91
40998;BME280;26740;45.944;12.480;2022-12-18T13:23:00;102870.03;;;10.35;69.40
40998;BME280;26740;45.944;12.480;2022-12-18T13:25:35;102861.69;;;10.63;67.07
40998;BME280;26740;45.944;12.480;2022-12-18T13:28:08;102859.91;;;10.28;71.17
40998;BME280;26740;45.944;12.480;2022-12-18T13:40:56;102877.50;;;9.48;76.12
40998;BME280;26740;45.944;12.480;2022-12-18T13:43:39;102875.25;;;9.22;79.19
40998;BME280;26740;45.944;12.480;2022-12-18T13:46:25;102866.84;;;9.16;77.13
40998;BME280;26740;45.944;12.480;2022-12-18T13:48:54;102859.88;;;9.05;76.72
40998;BME280;26740;45.944;12.480;2022-12-18T13:51:21;102859.88;;;9.05;78.13
40998;BME280;26740;45.944;12.480;2022-12-18T13:53:51;102860.53;;;9.22;76.27
40998;BME280;26740;45.944;12.480;2022-12-18T13:56:26;102859.97;;;9.11;75.66
40998;BME280;26740;45.944;12.480;2022-12-18T14:01:36;102854.53;;;9.03;78.31
40998;BME280;26740;45.944;12.480;2022-12-18T14:04:12;102858.56;;;9.01;78.25
40998;BME280;26740;45.944;12.480;2022-12-18T14:06:47;102856.75;;;8.93;78.78
40998;BME280;26740;45.944;12.480;2022-12-18T14:09:16;102852.66;;;8.74;80.60
40998;BME280;26740;45.944;12.480;2022-12-18T14:11:53;102859.13;;;8.96;77.75
40998;BME280;26740;45.944;12.480;2022-12-18T14:14:44;102856.28;;;8.75;86.51
40998;BME280;26740;45.944;12.480;2022-12-18T14:17:12;102858.94;;;8.68;84.17
40998;BME280;26740;45.944;12.480;2022-12-18T14:19:44;102872.97;;;8.96;80.57
40998;BME280;26740;45.944;12.480;2022-12-18T14:22:19;102880.06;;;8.84;81.52
40998;BME280;26740;45.944;12.480;2022-12-18T14:24:46;102879.00;;;8.55;80.00
40998;BME280;26740;45.944;12.480;2022-12-18T14:27:20;102884.34;;;8.57;79.39